Brighton, Canada
Current Conditions -  °F | °C
As of 10:00 PM on Saturday 24 Jan 2015 (Local Time) from CYTR Reporting Station
Haze Haze  
Wind Chill: 25°   Ceiling: 7500
Heat Index: 32°   Visibility: 5mi
Dew Point: 28°   Wind: 8mph
Humidity: 87%   Direction: 240°WSW
Pressure: 29.42"   Gusts: NA
Location:  44.03°N, 77.73°W
Report Text: CYTR 250300Z 24007KT 5SM BR SCT012 OVC075 M00/M02 A2942 RMK SF3AC5 SLP967
Loading
Personal Weather Stations






























Interactive Weather Map New forecast layout! Learn more

10-Day Weather Forecast

Advertisements
Track Severe Weather on mobile